sensor_id;sensor_type;location;lat;lon;timestamp;P1;durP1;ratioP1;P2;durP2;ratioP2
64738;SDS011;51175;51.186;0.276;2023-10-31T00:00:29;3.08;;;2.45;;
64738;SDS011;51175;51.186;0.276;2023-10-31T00:01:00;24.52;;;4.25;;
64738;SDS011;51175;51.186;0.276;2023-10-31T00:01:30;20.05;;;3.92;;
64738;SDS011;51175;51.186;0.276;2023-10-31T00:02:01;38.42;;;4.88;;
64738;SDS011;51175;51.186;0.276;2023-10-31T00:02:31;19.88;;;4.00;;
64738;SDS011;51175;51.186;0.276;2023-10-31T00:03:02;25.25;;;4.55;;
64738;SDS011;51175;51.186;0.276;2023-10-31T00:03:32;42.85;;;5.03;;
64738;SDS011;51175;51.186;0.276;2023-10-31T00:04:03;9.50;;;3.03;;
64738;SDS011;51175;51.186;0.276;2023-10-31T00:04:33;17.83;;;3.63;;
64738;SDS011;51175;51.186;0.276;2023-10-31T00:05:04;6.32;;;2.80;;
64738;SDS011;51175;51.186;0.276;2023-10-31T00:05:35;9.68;;;3.50;;
64738;SDS011;51175;51.186;0.276;2023-10-31T00:06:05;20.00;;;4.28;;
64738;SDS011;51175;51.186;0.276;2023-10-31T00:06:36;12.10;;;3.28;;
64738;SDS011;51175;51.186;0.276;2023-10-31T00:07:06;18.23;;;3.92;;
64738;SDS011;51175;51.186;0.276;2023-10-31T00:07:37;22.35;;;4.53;;
64738;SDS011;51175;51.186;0.276;2023-10-31T00:08:07;13.38;;;3.50;;
64738;SDS011;51175;51.186;0.276;2023-10-31T00:08:38;20.42;;;3.90;;
64738;SDS011;51175;51.186;0.276;2023-10-31T00:09:08;11.45;;;3.90;;
64738;SDS011;51175;51.186;0.276;2023-10-31T00:09:40;5.63;;;2.80;;
64738;SDS011;51175;51.186;0.276;2023-10-31T00:10:11;12.80;;;3.33;;
64738;SDS011;51175;51.186;0.276;2023-10-31T00:10:41;12.57;;;3.67;;
64738;SDS011;51175;51.186;0.276;2023-10-31T00:11:14;18.33;;;4.30;;
64738;SDS011;51175;51.186;0.276;2023-10-31T00:11:45;13.77;;;3.10;;
64738;SDS011;51175;51.186;0.276;2023-10-31T00:12:15;22.02;;;3.80;;
64738;SDS011;51175;51.186;0.276;2023-10-31T00:12:46;10.38;;;4.13;;
64738;SDS011;51175;51.186;0.276;2023-10-31T00:13:16;22.02;;;3.80;;
64738;SDS011;51175;51.186;0.276;2023-10-31T00:13:46;5.15;;;3.00;;
64738;SDS011;51175;51.186;0.276;2023-10-31T00:14:17;22.38;;;4.22;;
64738;SDS011;51175;51.186;0.276;2023-10-31T00:14:47;7.53;;;3.05;;
64738;SDS011;51175;51.186;0.276;2023-10-31T00:15:18;7.00;;;3.10;;
64738;SDS011;51175;51.186;0.276;2023-10-31T00:15:48;11.60;;;3.83;;
64738;SDS011;51175;51.186;0.276;2023-10-31T00:16:18;10.13;;;3.92;;
64738;SDS011;51175;51.186;0.276;2023-10-31T00:16:49;18.65;;;5.10;;
64738;SDS011;51175;51.186;0.276;2023-10-31T00:17:21;10.55;;;4.15;;
64738;SDS011;51175;51.186;0.276;2023-10-31T00:17:55;5.75;;;3.78;;
64738;SDS011;51175;51.186;0.276;2023-10-31T00:18:25;12.77;;;3.53;;
64738;SDS011;51175;51.186;0.276;2023-10-31T00:18:55;7.55;;;3.85;;
64738;SDS011;51175;51.186;0.276;2023-10-31T00:19:27;7.97;;;4.45;;
64738;SDS011;51175;51.186;0.276;2023-10-31T00:19:57;10.60;;;4.20;;
64738;SDS011;51175;51.186;0.276;2023-10-31T00:20:28;5.95;;;4.03;;
64738;SDS011;51175;51.186;0.276;2023-10-31T00:20:59;8.05;;;3.78;;
64738;SDS011;51175;51.186;0.276;2023-10-31T00:21:30;8.68;;;4.10;;
64738;SDS011;51175;51.186;0.276;2023-10-31T00:22:00;6.70;;;3.55;;
64738;SDS011;51175;51.186;0.276;2023-10-31T00:22:31;11.00;;;4.35;;
64738;SDS011;51175;51.186;0.276;2023-10-31T00:23:01;5.85;;;4.13;;
64738;SDS011;51175;51.186;0.276;2023-10-31T00:23:32;4.68;;;3.80;;
64738;SDS011;51175;51.186;0.276;2023-10-31T00:24:02;5.15;;;4.03;;
64738;SDS011;51175;51.186;0.276;2023-10-31T00:24:33;5.63;;;4.00;;
64738;SDS011;51175;51.186;0.276;2023-10-31T00:25:06;7.45;;;4.22;;
64738;SDS011;51175;51.186;0.276;2023-10-31T00:25:37;8.45;;;4.07;;
64738;SDS011;51175;51.186;0.276;2023-10-31T00:26:07;9.43;;;4.43;;
64738;SDS011;51175;51.186;0.276;2023-10-31T00:26:39;22.50;;;4.93;;
64738;SDS011;51175;51.186;0.276;2023-10-31T00:27:10;29.88;;;6.10;;
64738;SDS011;51175;51.186;0.276;2023-10-31T00:27:40;18.40;;;5.78;;
64738;SDS011;51175;51.186;0.276;2023-10-31T00:28:11;8.05;;;4.28;;
64738;SDS011;51175;51.186;0.276;2023-10-31T00:28:41;13.32;;;5.07;;
64738;SDS011;51175;51.186;0.276;2023-10-31T00:29:12;34.53;;;6.22;;
64738;SDS011;51175;51.186;0.276;2023-10-31T00:29:42;15.82;;;4.13;;
64738;SDS011;51175;51.186;0.276;2023-10-31T00:30:12;11.20;;;4.53;;
64738;SDS011;51175;51.186;0.276;2023-10-31T00:30:43;6.78;;;3.65;;
64738;SDS011;51175;51.186;0.276;2023-10-31T00:31:13;12.50;;;3.47;;
64738;SDS011;51175;51.186;0.276;2023-10-31T00:31:44;9.68;;;2.75;;
64738;SDS011;51175;51.186;0.276;2023-10-31T00:32:14;6.18;;;3.28;;
64738;SDS011;51175;51.186;0.276;2023-10-31T00:32:45;7.55;;;3.22;;
64738;SDS011;51175;51.186;0.276;2023-10-31T00:33:15;17.38;;;3.88;;
64738;SDS011;51175;51.186;0.276;2023-10-31T00:33:46;4.97;;;2.60;;
64738;SDS011;51175;51.186;0.276;2023-10-31T00:34:16;6.95;;;2.97;;
64738;SDS011;51175;51.186;0.276;2023-10-31T00:34:46;19.98;;;3.85;;
64738;SDS011;51175;51.186;0.276;2023-10-31T00:35:20;5.63;;;2.85;;
64738;SDS011;51175;51.186;0.276;2023-10-31T00:35:50;14.98;;;3.63;;
64738;SDS011;51175;51.186;0.276;2023-10-31T00:36:20;6.30;;;2.90;;
64738;SDS011;51175;51.186;0.276;2023-10-31T00:36:51;17.05;;;3.70;;
64738;SDS011;51175;51.186;0.276;2023-10-31T00:37:21;18.90;;;3.78;;
64738;SDS011;51175;51.186;0.276;2023-10-31T00:37:52;4.47;;;2.75;;
64738;SDS011;51175;51.186;0.276;2023-10-31T00:38:22;22.55;;;4.45;;
64738;SDS011;51175;51.186;0.276;2023-10-31T00:38:53;20.13;;;3.15;;
64738;SDS011;51175;51.186;0.276;2023-10-31T00:39:23;5.30;;;2.85;;
64738;SDS011;51175;51.186;0.276;2023-10-31T00:39:56;27.77;;;4.30;;
64738;SDS011;51175;51.186;0.276;2023-10-31T00:40:26;20.60;;;4.65;;
64738;SDS011;51175;51.186;0.276;2023-10-31T00:40:57;27.80;;;3.90;;
64738;SDS011;51175;51.186;0.276;2023-10-31T00:41:27;59.17;;;5.60;;
64738;SDS011;51175;51.186;0.276;2023-10-31T00:41:57;59.30;;;8.38;;
64738;SDS011;51175;51.186;0.276;2023-10-31T00:42:28;57.67;;;7.28;;
64738;SDS011;51175;51.186;0.276;2023-10-31T00:42:58;20.65;;;4.10;;
64738;SDS011;51175;51.186;0.276;2023-10-31T00:43:30;44.50;;;6.47;;
64738;SDS011;51175;51.186;0.276;2023-10-31T00:44:01;76.43;;;8.60;;
64738;SDS011;51175;51.186;0.276;2023-10-31T00:44:31;13.93;;;4.10;;
64738;SDS011;51175;51.186;0.276;2023-10-31T00:45:01;24.30;;;7.03;;
64738;SDS011;51175;51.186;0.276;2023-10-31T00:45:32;57.22;;;7.13;;
64738;SDS011;51175;51.186;0.276;2023-10-31T00:46:05;32.58;;;5.15;;
64738;SDS011;51175;51.186;0.276;2023-10-31T00:46:36;36.65;;;5.75;;
64738;SDS011;51175;51.186;0.276;2023-10-31T00:47:06;19.10;;;5.13;;
64738;SDS011;51175;51.186;0.276;2023-10-31T00:47:36;85.65;;;9.27;;
64738;SDS011;51175;51.186;0.276;2023-10-31T00:48:07;46.22;;;6.45;;
64738;SDS011;51175;51.186;0.276;2023-10-31T00:48:37;52.67;;;6.45;;
64738;SDS011;51175;51.186;0.276;2023-10-31T00:49:08;19.70;;;5.38;;
64738;SDS011;51175;51.186;0.276;2023-10-31T00:49:38;47.70;;;6.72;;
64738;SDS011;51175;51.186;0.276;2023-10-31T00:50:08;49.42;;;6.18;;
64738;SDS011;51175;51.186;0.276;2023-10-31T00:50:39;21.55;;;5.10;;
64738;SDS011;51175;51.186;0.276;2023-10-31T00:51:09;40.05;;;6.65;;
64738;SDS011;51175;51.186;0.276;2023-10-31T00:51:40;16.83;;;3.97;;
64738;SDS011;51175;51.186;0.276;2023-10-31T00:52:10;30.85;;;4.97;;
64738;SDS011;51175;51.186;0.276;2023-10-31T00:52:41;50.22;;;6.93;;
64738;SDS011;51175;51.186;0.276;2023-10-31T00:53:11;51.42;;;6.22;;
64738;SDS011;51175;51.186;0.276;2023-10-31T00:53:43;25.77;;;4.35;;
64738;SDS011;51175;51.186;0.276;2023-10-31T00:54:14;18.70;;;3.70;;
64738;SDS011;51175;51.186;0.276;2023-10-31T00:54:45;12.93;;;3.63;;
64738;SDS011;51175;51.186;0.276;2023-10-31T00:55:15;56.97;;;6.20;;
64738;SDS011;51175;51.186;0.276;2023-10-31T00:55:48;34.00;;;5.57;;
64738;SDS011;51175;51.186;0.276;2023-10-31T00:56:19;14.73;;;4.22;;
64738;SDS011;51175;51.186;0.276;2023-10-31T00:56:49;16.42;;;4.15;;
64738;SDS011;51175;51.186;0.276;2023-10-31T00:57:20;31.08;;;5.07;;
64738;SDS011;51175;51.186;0.276;2023-10-31T00:57:50;16.95;;;3.95;;
64738;SDS011;51175;51.186;0.276;2023-10-31T00:58:20;36.38;;;5.07;;
64738;SDS011;51175;51.186;0.276;2023-10-31T00:58:51;60.85;;;5.60;;
64738;SDS011;51175;51.186;0.276;2023-10-31T00:59:21;16.45;;;3.65;;
64738;SDS011;51175;51.186;0.276;2023-10-31T00:59:51;8.65;;;3.20;;
64738;SDS011;51175;51.186;0.276;2023-10-31T01:00:22;21.52;;;4.78;;
64738;SDS011;51175;51.186;0.276;2023-10-31T01:00:52;16.20;;;4.13;;
64738;SDS011;51175;51.186;0.276;2023-10-31T01:01:23;25.45;;;3.63;;
64738;SDS011;51175;51.186;0.276;2023-10-31T01:01:53;31.95;;;4.03;;
64738;SDS011;51175;51.186;0.276;2023-10-31T01:02:23;27.55;;;4.93;;
64738;SDS011;51175;51.186;0.276;2023-10-31T01:02:54;36.15;;;5.00;;
64738;SDS011;51175;51.186;0.276;2023-10-31T01:03:25;18.13;;;3.58;;
64738;SDS011;51175;51.186;0.276;2023-10-31T01:03:56;51.75;;;5.25;;
64738;SDS011;51175;51.186;0.276;2023-10-31T01:04:26;48.35;;;5.38;;
64738;SDS011;51175;51.186;0.276;2023-10-31T01:04:57;20.55;;;4.88;;
64738;SDS011;51175;51.186;0.276;2023-10-31T01:05:30;20.17;;;4.03;;
64738;SDS011;51175;51.186;0.276;2023-10-31T01:06:07;23.02;;;4.93;;
64738;SDS011;51175;51.186;0.276;2023-10-31T01:06:41;12.95;;;3.33;;
64738;SDS011;51175;51.186;0.276;2023-10-31T01:07:12;39.03;;;4.82;;
64738;SDS011;51175;51.186;0.276;2023-10-31T01:07:44;84.25;;;7.95;;
64738;SDS011;51175;51.186;0.276;2023-10-31T01:08:15;29.55;;;4.75;;
64738;SDS011;51175;51.186;0.276;2023-10-31T01:08:45;26.73;;;5.47;;
64738;SDS011;51175;51.186;0.276;2023-10-31T01:09:16;35.65;;;4.78;;
64738;SDS011;51175;51.186;0.276;2023-10-31T01:09:46;30.17;;;4.72;;
64738;SDS011;51175;51.186;0.276;2023-10-31T01:10:52;13.13;;;3.78;;
64738;SDS011;51175;51.186;0.276;2023-10-31T01:11:23;14.38;;;3.28;;
64738;SDS011;51175;51.186;0.276;2023-10-31T01:11:53;16.52;;;4.22;;
64738;SDS011;51175;51.186;0.276;2023-10-31T01:12:24;9.52;;;3.85;;
64738;SDS011;51175;51.186;0.276;2023-10-31T01:12:54;20.33;;;4.22;;
64738;SDS011;51175;51.186;0.276;2023-10-31T01:13:25;27.45;;;5.07;;
64738;SDS011;51175;51.186;0.276;2023-10-31T01:13:55;15.65;;;3.88;;
64738;SDS011;51175;51.186;0.276;2023-10-31T01:14:25;52.50;;;6.22;;
64738;SDS011;51175;51.186;0.276;2023-10-31T01:15:02;23.83;;;5.07;;
64738;SDS011;51175;51.186;0.276;2023-10-31T01:15:33;14.45;;;3.85;;
64738;SDS011;51175;51.186;0.276;2023-10-31T01:16:03;22.45;;;4.28;;
64738;SDS011;51175;51.186;0.276;2023-10-31T01:16:34;27.85;;;5.25;;
64738;SDS011;51175;51.186;0.276;2023-10-31T01:17:04;24.35;;;3.72;;
64738;SDS011;51175;51.186;0.276;2023-10-31T01:17:35;46.85;;;5.30;;
64738;SDS011;51175;51.186;0.276;2023-10-31T01:18:05;50.47;;;6.07;;
64738;SDS011;51175;51.186;0.276;2023-10-31T01:18:36;28.08;;;4.28;;
64738;SDS011;51175;51.186;0.276;2023-10-31T01:19:06;60.03;;;6.15;;
64738;SDS011;51175;51.186;0.276;2023-10-31T01:19:37;19.00;;;3.65;;
64738;SDS011;51175;51.186;0.276;2023-10-31T01:20:07;32.25;;;4.70;;
64738;SDS011;51175;51.186;0.276;2023-10-31T01:20:39;35.53;;;5.40;;
64738;SDS011;51175;51.186;0.276;2023-10-31T01:21:09;43.63;;;5.65;;
64738;SDS011;51175;51.186;0.276;2023-10-31T01:21:41;9.98;;;3.40;;
64738;SDS011;51175;51.186;0.276;2023-10-31T01:22:11;8.65;;;4.25;;
64738;SDS011;51175;51.186;0.276;2023-10-31T01:22:42;27.63;;;5.57;;
64738;SDS011;51175;51.186;0.276;2023-10-31T01:23:12;39.95;;;4.95;;
64738;SDS011;51175;51.186;0.276;2023-10-31T01:23:43;20.02;;;4.40;;
64738;SDS011;51175;51.186;0.276;2023-10-31T01:24:13;24.10;;;3.80;;
64738;SDS011;51175;51.186;0.276;2023-10-31T01:24:43;30.77;;;5.50;;
64738;SDS011;51175;51.186;0.276;2023-10-31T01:25:14;51.08;;;6.80;;
64738;SDS011;51175;51.186;0.276;2023-10-31T01:25:44;12.75;;;3.53;;
64738;SDS011;51175;51.186;0.276;2023-10-31T01:26:15;8.98;;;4.53;;
64738;SDS011;51175;51.186;0.276;2023-10-31T01:26:46;30.92;;;5.13;;
64738;SDS011;51175;51.186;0.276;2023-10-31T01:27:16;31.70;;;5.72;;
64738;SDS011;51175;51.186;0.276;2023-10-31T01:27:46;30.23;;;4.95;;
64738;SDS011;51175;51.186;0.276;2023-10-31T01:28:17;14.90;;;3.92;;
64738;SDS011;51175;51.186;0.276;2023-10-31T01:28:47;32.00;;;5.50;;
64738;SDS011;51175;51.186;0.276;2023-10-31T01:29:18;21.42;;;4.13;;
64738;SDS011;51175;51.186;0.276;2023-10-31T01:29:49;12.90;;;3.80;;
64738;SDS011;51175;51.186;0.276;2023-10-31T01:30:19;28.63;;;5.43;;
64738;SDS011;51175;51.186;0.276;2023-10-31T01:30:49;25.27;;;4.85;;
64738;SDS011;51175;51.186;0.276;2023-10-31T01:31:20;30.20;;;5.15;;
64738;SDS011;51175;51.186;0.276;2023-10-31T01:31:50;32.17;;;4.50;;
64738;SDS011;51175;51.186;0.276;2023-10-31T01:32:21;16.85;;;4.38;;
64738;SDS011;51175;51.186;0.276;2023-10-31T01:32:51;17.13;;;4.20;;
64738;SDS011;51175;51.186;0.276;2023-10-31T01:33:21;10.35;;;4.38;;
64738;SDS011;51175;51.186;0.276;2023-10-31T01:33:52;13.13;;;3.70;;
64738;SDS011;51175;51.186;0.276;2023-10-31T01:34:22;13.65;;;3.92;;
64738;SDS011;51175;51.186;0.276;2023-10-31T01:34:53;8.85;;;3.88;;
64738;SDS011;51175;51.186;0.276;2023-10-31T01:35:23;7.65;;;3.70;;
64738;SDS011;51175;51.186;0.276;2023-10-31T01:35:55;8.38;;;3.28;;
64738;SDS011;51175;51.186;0.276;2023-10-31T01:36:25;4.28;;;3.38;;
64738;SDS011;51175;51.186;0.276;2023-10-31T01:36:58;4.05;;;3.30;;
64738;SDS011;51175;51.186;0.276;2023-10-31T01:37:29;4.13;;;3.53;;
64738;SDS011;51175;51.186;0.276;2023-10-31T01:38:00;5.47;;;3.53;;
64738;SDS011;51175;51.186;0.276;2023-10-31T01:38:30;5.78;;;3.67;;
64738;SDS011;51175;51.186;0.276;2023-10-31T01:39:00;6.15;;;3.70;;
64738;SDS011;51175;51.186;0.276;2023-10-31T01:39:31;6.13;;;3.65;;
64738;SDS011;51175;51.186;0.276;2023-10-31T01:40:11;6.20;;;3.75;;
64738;SDS011;51175;51.186;0.276;2023-10-31T01:40:42;3.33;;;2.65;;
64738;SDS011;51175;51.186;0.276;2023-10-31T01:41:13;4.30;;;3.70;;
64738;SDS011;51175;51.186;0.276;2023-10-31T01:41:43;12.65;;;3.70;;
64738;SDS011;51175;51.186;0.276;2023-10-31T01:42:14;82.97;;;7.25;;
64738;SDS011;51175;51.186;0.276;2023-10-31T01:42:45;19.73;;;3.92;;
64738;SDS011;51175;51.186;0.276;2023-10-31T01:43:28;8.43;;;3.45;;
64738;SDS011;51175;51.186;0.276;2023-10-31T01:44:03;20.02;;;4.32;;
64738;SDS011;51175;51.186;0.276;2023-10-31T01:44:35;11.30;;;4.15;;
64738;SDS011;51175;51.186;0.276;2023-10-31T01:45:10;4.80;;;3.55;;
64738;SDS011;51175;51.186;0.276;2023-10-31T01:45:40;4.70;;;3.83;;
64738;SDS011;51175;51.186;0.276;2023-10-31T01:46:11;4.30;;;3.33;;
64738;SDS011;51175;51.186;0.276;2023-10-31T01:46:41;4.43;;;3.40;;
64738;SDS011;51175;51.186;0.276;2023-10-31T01:47:14;4.75;;;3.10;;
64738;SDS011;51175;51.186;0.276;2023-10-31T01:47:44;4.93;;;3.80;;
64738;SDS011;51175;51.186;0.276;2023-10-31T01:48:17;6.30;;;3.70;;
64738;SDS011;51175;51.186;0.276;2023-10-31T01:48:49;6.22;;;3.47;;
64738;SDS011;51175;51.186;0.276;2023-10-31T01:49:19;5.53;;;3.38;;
64738;SDS011;51175;51.186;0.276;2023-10-31T01:49:50;4.97;;;3.35;;
64738;SDS011;51175;51.186;0.276;2023-10-31T01:50:22;6.03;;;3.25;;
64738;SDS011;51175;51.186;0.276;2023-10-31T01:50:52;7.40;;;3.70;;
64738;SDS011;51175;51.186;0.276;2023-10-31T01:51:23;3.58;;;3.28;;
64738;SDS011;51175;51.186;0.276;2023-10-31T01:51:54;5.43;;;3.47;;
64738;SDS011;51175;51.186;0.276;2023-10-31T01:52:24;4.10;;;2.85;;
64738;SDS011;51175;51.186;0.276;2023-10-31T01:52:56;5.60;;;3.63;;
64738;SDS011;51175;51.186;0.276;2023-10-31T01:53:26;5.75;;;4.10;;
64738;SDS011;51175;51.186;0.276;2023-10-31T01:53:58;7.75;;;4.95;;
64738;SDS011;51175;51.186;0.276;2023-10-31T01:54:28;5.57;;;4.00;;
64738;SDS011;51175;51.186;0.276;2023-10-31T01:54:59;6.97;;;3.63;;
64738;SDS011;51175;51.186;0.276;2023-10-31T01:55:35;4.93;;;3.90;;
64738;SDS011;51175;51.186;0.276;2023-10-31T01:56:05;5.38;;;3.85;;
64738;SDS011;51175;51.186;0.276;2023-10-31T01:56:37;3.83;;;2.50;;
64738;SDS011;51175;51.186;0.276;2023-10-31T01:57:07;6.20;;;3.22;;
64738;SDS011;51175;51.186;0.276;2023-10-31T01:57:38;3.72;;;3.25;;
64738;SDS011;51175;51.186;0.276;2023-10-31T01:58:10;5.18;;;3.20;;
64738;SDS011;51175;51.186;0.276;2023-10-31T01:58:41;3.60;;;2.78;;
64738;SDS011;51175;51.186;0.276;2023-10-31T01:59:13;4.63;;;2.72;;
64738;SDS011;51175;51.186;0.276;2023-10-31T01:59:44;2.75;;;2.20;;
64738;SDS011;51175;51.186;0.276;2023-10-31T02:00:14;4.95;;;2.67;;
64738;SDS011;51175;51.186;0.276;2023-10-31T02:00:46;4.18;;;3.25;;
64738;SDS011;51175;51.186;0.276;2023-10-31T02:01:18;4.10;;;2.70;;
64738;SDS011;51175;51.186;0.276;2023-10-31T02:01:49;3.95;;;2.30;;
64738;SDS011;51175;51.186;0.276;2023-10-31T02:02:22;4.78;;;2.70;;
64738;SDS011;51175;51.186;0.276;2023-10-31T02:02:54;3.28;;;2.65;;
64738;SDS011;51175;51.186;0.276;2023-10-31T02:03:25;3.47;;;2.58;;
64738;SDS011;51175;51.186;0.276;2023-10-31T02:03:58;4.18;;;2.30;;
64738;SDS011;51175;51.186;0.276;2023-10-31T02:04:29;2.83;;;2.10;;
64738;SDS011;51175;51.186;0.276;2023-10-31T02:05:00;5.93;;;2.72;;
64738;SDS011;51175;51.186;0.276;2023-10-31T02:05:33;6.95;;;2.38;;
64738;SDS011;51175;51.186;0.276;2023-10-31T02:06:04;5.18;;;2.70;;
64738;SDS011;51175;51.186;0.276;2023-10-31T02:06:35;3.53;;;2.53;;
64738;SDS011;51175;51.186;0.276;2023-10-31T02:07:05;4.53;;;2.40;;
64738;SDS011;51175;51.186;0.276;2023-10-31T02:07:36;6.05;;;2.92;;
64738;SDS011;51175;51.186;0.276;2023-10-31T02:08:06;5.72;;;1.90;;
64738;SDS011;51175;51.186;0.276;2023-10-31T02:08:39;2.67;;;2.25;;
64738;SDS011;51175;51.186;0.276;2023-10-31T02:09:10;4.75;;;2.13;;
64738;SDS011;51175;51.186;0.276;2023-10-31T02:09:40;3.97;;;2.13;;
64738;SDS011;51175;51.186;0.276;2023-10-31T02:10:11;3.67;;;2.65;;
64738;SDS011;51175;51.186;0.276;2023-10-31T02:10:41;8.25;;;2.70;;
64738;SDS011;51175;51.186;0.276;2023-10-31T02:11:12;3.75;;;2.50;;
64738;SDS011;51175;51.186;0.276;2023-10-31T02:11:42;3.10;;;2.47;;
64738;SDS011;51175;51.186;0.276;2023-10-31T02:12:30;15.63;;;2.75;;
64738;SDS011;51175;51.186;0.276;2023-10-31T02:13:10;21.75;;;3.95;;
64738;SDS011;51175;51.186;0.276;2023-10-31T02:13:44;8.13;;;2.45;;
64738;SDS011;51175;51.186;0.276;2023-10-31T02:14:14;8.07;;;2.65;;
64738;SDS011;51175;51.186;0.276;2023-10-31T02:14:45;3.80;;;2.63;;
64738;SDS011;51175;51.186;0.276;2023-10-31T02:15:15;4.82;;;2.60;;
64738;SDS011;51175;51.186;0.276;2023-10-31T02:15:46;4.15;;;2.80;;
64738;SDS011;51175;51.186;0.276;2023-10-31T02:16:19;3.28;;;2.35;;
64738;SDS011;51175;51.186;0.276;2023-10-31T02:16:50;3.75;;;2.80;;
64738;SDS011;51175;51.186;0.276;2023-10-31T02:17:20;4.20;;;2.60;;
64738;SDS011;51175;51.186;0.276;2023-10-31T02:17:51;4.82;;;2.42;;
64738;SDS011;51175;51.186;0.276;2023-10-31T02:18:21;5.65;;;2.55;;
64738;SDS011;51175;51.186;0.276;2023-10-31T02:18:51;6.30;;;2.65;;
64738;SDS011;51175;51.186;0.276;2023-10-31T02:19:22;4.28;;;2.92;;
64738;SDS011;51175;51.186;0.276;2023-10-31T02:19:53;4.38;;;2.33;;
64738;SDS011;51175;51.186;0.276;2023-10-31T02:20:23;5.03;;;2.47;;
64738;SDS011;51175;51.186;0.276;2023-10-31T02:20:54;3.95;;;2.72;;
64738;SDS011;51175;51.186;0.276;2023-10-31T02:21:25;6.70;;;2.47;;
64738;SDS011;51175;51.186;0.276;2023-10-31T02:21:56;5.75;;;2.97;;
64738;SDS011;51175;51.186;0.276;2023-10-31T02:22:26;4.30;;;2.47;;
64738;SDS011;51175;51.186;0.276;2023-10-31T02:22:56;6.07;;;2.47;;
64738;SDS011;51175;51.186;0.276;2023-10-31T02:23:27;5.32;;;2.63;;
64738;SDS011;51175;51.186;0.276;2023-10-31T02:23:58;6.38;;;2.40;;
64738;SDS011;51175;51.186;0.276;2023-10-31T02:24:32;6.32;;;2.60;;
64738;SDS011;51175;51.186;0.276;2023-10-31T02:25:03;5.05;;;2.30;;
64738;SDS011;51175;51.186;0.276;2023-10-31T02:25:33;4.90;;;2.58;;
64738;SDS011;51175;51.186;0.276;2023-10-31T02:26:04;5.40;;;2.85;;
64738;SDS011;51175;51.186;0.276;2023-10-31T02:26:34;4.60;;;2.75;;
64738;SDS011;51175;51.186;0.276;2023-10-31T02:27:05;10.60;;;3.00;;
64738;SDS011;51175;51.186;0.276;2023-10-31T02:27:35;12.43;;;3.83;;
64738;SDS011;51175;51.186;0.276;2023-10-31T02:28:05;14.30;;;3.53;;
64738;SDS011;51175;51.186;0.276;2023-10-31T02:28:36;12.18;;;3.25;;
64738;SDS011;51175;51.186;0.276;2023-10-31T02:29:07;11.82;;;3.45;;
64738;SDS011;51175;51.186;0.276;2023-10-31T02:29:38;10.13;;;4.00;;
64738;SDS011;51175;51.186;0.276;2023-10-31T02:30:10;6.88;;;2.78;;
64738;SDS011;51175;51.186;0.276;2023-10-31T02:30:40;11.50;;;2.60;;
64738;SDS011;51175;51.186;0.276;2023-10-31T02:31:11;9.13;;;3.03;;
64738;SDS011;51175;51.186;0.276;2023-10-31T02:31:41;8.48;;;2.97;;
64738;SDS011;51175;51.186;0.276;2023-10-31T02:32:12;13.75;;;3.47;;
64738;SDS011;51175;51.186;0.276;2023-10-31T02:32:42;9.07;;;2.90;;
64738;SDS011;51175;51.186;0.276;2023-10-31T02:33:13;14.30;;;4.40;;
64738;SDS011;51175;51.186;0.276;2023-10-31T02:33:43;17.42;;;4.10;;
64738;SDS011;51175;51.186;0.276;2023-10-31T02:34:14;21.90;;;4.40;;
64738;SDS011;51175;51.186;0.276;2023-10-31T02:34:45;10.32;;;3.13;;
64738;SDS011;51175;51.186;0.276;2023-10-31T02:35:16;18.50;;;3.60;;
64738;SDS011;51175;51.186;0.276;2023-10-31T02:35:48;20.23;;;3.53;;
64738;SDS011;51175;51.186;0.276;2023-10-31T02:36:21;16.90;;;3.78;;
64738;SDS011;51175;51.186;0.276;2023-10-31T02:36:52;33.03;;;5.22;;
64738;SDS011;51175;51.186;0.276;2023-10-31T02:37:22;16.23;;;4.15;;
64738;SDS011;51175;51.186;0.276;2023-10-31T02:37:52;20.08;;;3.90;;
64738;SDS011;51175;51.186;0.276;2023-10-31T02:38:23;6.13;;;2.70;;
64738;SDS011;51175;51.186;0.276;2023-10-31T02:38:53;16.55;;;3.97;;
64738;SDS011;51175;51.186;0.276;2023-10-31T02:39:24;14.98;;;4.15;;
64738;SDS011;51175;51.186;0.276;2023-10-31T02:39:54;16.48;;;3.72;;
64738;SDS011;51175;51.186;0.276;2023-10-31T02:40:24;12.20;;;3.33;;
64738;SDS011;51175;51.186;0.276;2023-10-31T02:40:55;14.02;;;3.47;;
64738;SDS011;51175;51.186;0.276;2023-10-31T02:41:25;28.42;;;4.72;;
64738;SDS011;51175;51.186;0.276;2023-10-31T02:41:56;11.93;;;4.60;;
64738;SDS011;51175;51.186;0.276;2023-10-31T02:42:26;15.00;;;3.20;;
64738;SDS011;51175;51.186;0.276;2023-10-31T02:42:57;6.18;;;3.03;;
64738;SDS011;51175;51.186;0.276;2023-10-31T02:43:27;6.07;;;2.63;;
64738;SDS011;51175;51.186;0.276;2023-10-31T02:43:58;4.22;;;2.30;;
64738;SDS011;51175;51.186;0.276;2023-10-31T02:44:28;11.30;;;2.80;;
64738;SDS011;51175;51.186;0.276;2023-10-31T02:44:58;7.68;;;2.45;;
64738;SDS011;51175;51.186;0.276;2023-10-31T02:45:29;7.90;;;3.15;;
64738;SDS011;51175;51.186;0.276;2023-10-31T02:45:59;4.50;;;2.95;;
64738;SDS011;51175;51.186;0.276;2023-10-31T02:46:30;15.68;;;3.28;;
64738;SDS011;51175;51.186;0.276;2023-10-31T02:47:00;5.22;;;2.70;;
64738;SDS011;51175;51.186;0.276;2023-10-31T02:47:31;10.90;;;2.65;;
64738;SDS011;51175;51.186;0.276;2023-10-31T02:48:01;19.77;;;3.95;;
64738;SDS011;51175;51.186;0.276;2023-10-31T02:48:32;14.30;;;3.72;;
64738;SDS011;51175;51.186;0.276;2023-10-31T02:49:08;8.73;;;3.17;;
64738;SDS011;51175;51.186;0.276;2023-10-31T02:49:39;11.95;;;3.35;;
64738;SDS011;51175;51.186;0.276;2023-10-31T02:50:10;15.65;;;3.33;;
64738;SDS011;51175;51.186;0.276;2023-10-31T02:50:40;27.45;;;3.50;;
64738;SDS011;51175;51.186;0.276;2023-10-31T02:51:11;25.38;;;3.83;;
64738;SDS011;51175;51.186;0.276;2023-10-31T02:51:41;37.03;;;4.78;;
64738;SDS011;51175;51.186;0.276;2023-10-31T02:52:12;43.00;;;5.75;;
64738;SDS011;51175;51.186;0.276;2023-10-31T02:52:42;21.42;;;4.07;;
64738;SDS011;51175;51.186;0.276;2023-10-31T02:53:12;17.70;;;3.38;;
64738;SDS011;51175;51.186;0.276;2023-10-31T02:53:43;15.38;;;3.40;;
64738;SDS011;51175;51.186;0.276;2023-10-31T02:54:13;14.70;;;3.55;;
64738;SDS011;51175;51.186;0.276;2023-10-31T02:54:43;29.70;;;3.95;;
64738;SDS011;51175;51.186;0.276;2023-10-31T02:55:14;31.92;;;3.88;;
64738;SDS011;51175;51.186;0.276;2023-10-31T02:55:44;20.65;;;4.30;;
64738;SDS011;51175;51.186;0.276;2023-10-31T02:56:15;10.13;;;3.75;;
64738;SDS011;51175;51.186;0.276;2023-10-31T02:56:45;6.65;;;2.78;;
64738;SDS011;51175;51.186;0.276;2023-10-31T02:57:16;6.10;;;2.58;;
64738;SDS011;51175;51.186;0.276;2023-10-31T02:57:47;21.33;;;3.25;;
64738;SDS011;51175;51.186;0.276;2023-10-31T02:58:18;19.73;;;3.78;;
64738;SDS011;51175;51.186;0.276;2023-10-31T02:58:48;39.92;;;3.95;;
64738;SDS011;51175;51.186;0.276;2023-10-31T02:59:20;14.60;;;3.05;;
64738;SDS011;51175;51.186;0.276;2023-10-31T02:59:50;40.58;;;4.68;;
64738;SDS011;51175;51.186;0.276;2023-10-31T03:00:21;7.43;;;2.67;;
64738;SDS011;51175;51.186;0.276;2023-10-31T03:00:51;12.45;;;3.30;;
64738;SDS011;51175;51.186;0.276;2023-10-31T03:01:22;32.78;;;3.58;;
64738;SDS011;51175;51.186;0.276;2023-10-31T03:01:52;16.08;;;3.47;;
64738;SDS011;51175;51.186;0.276;2023-10-31T03:02:23;10.23;;;2.97;;
64738;SDS011;51175;51.186;0.276;2023-10-31T03:02:54;37.60;;;4.90;;
64738;SDS011;51175;51.186;0.276;2023-10-31T03:03:24;25.83;;;3.63;;
64738;SDS011;51175;51.186;0.276;2023-10-31T03:03:55;15.98;;;3.00;;
64738;SDS011;51175;51.186;0.276;2023-10-31T03:04:25;42.38;;;4.28;;
64738;SDS011;51175;51.186;0.276;2023-10-31T03:04:56;19.88;;;3.15;;
64738;SDS011;51175;51.186;0.276;2023-10-31T03:05:26;47.35;;;5.45;;
64738;SDS011;51175;51.186;0.276;2023-10-31T03:05:56;17.90;;;3.28;;